Aviation Digital Data Service (ADDS)

Output produced by METARs form (1819 UTC 18 April 2019)
found at http://www.aviationweather.gov/metar/data/
 
METAR text: ENTC 181750Z 29013KT 9999 FEW020 BKN050 04/02 Q1029 TEMPO 22008KT RMK WIND 2600FT 24006KT
Conditions at: ENTC (TROMSO/LANGNES , NO) observed 1750 UTC 18 April 2019
Temperature: 4.0°C (39°F)
Dewpoint: 2.0°C (36°F) [RH = 87%]
Pressure (altimeter): 30.38 inches Hg (1029.0 mb)
Winds: from the WNW (290 degrees) at 15 MPH (13 knots; 6.7 m/s)
Visibility: 6 or more miles (10+ km)
Ceiling: 5000 feet AGL
Clouds: few clouds at 2000 feet AGL
broken clouds at 5000 feet AGL
Weather: no significant weather observed at this time

METAR text: ENTC 181720Z 29016KT 9999 FEW020 BKN050 05/01 Q1030 TEMPO 22008KT RMK WIND 2600FT 24012KT
Conditions at: ENTC (TROMSO/LANGNES , NO) observed 1720 UTC 18 April 2019
Temperature: 5.0°C (41°F)
Dewpoint: 1.0°C (34°F) [RH = 75%]
Pressure (altimeter): 30.41 inches Hg (1030.0 mb)
Winds: from the WNW (290 degrees) at 18 MPH (16 knots; 8.2 m/s)
Visibility: 6 or more miles (10+ km)
Ceiling: 5000 feet AGL
Clouds: few clouds at 2000 feet AGL
broken clouds at 5000 feet AGL
Weather: no significant weather observed at this time

METAR text: ENTC 181650Z 27007KT 9999 BKN066 05/00 Q1030 NOSIG RMK WIND 2600FT 23010KT
Conditions at: ENTC (TROMSO/LANGNES , NO) observed 1650 UTC 18 April 2019
Temperature: 5.0°C (41°F)
Dewpoint: 0.0°C (32°F) [RH = 70%]
Pressure (altimeter): 30.41 inches Hg (1030.0 mb)
Winds: from the W (270 degrees) at 8 MPH (7 knots; 3.6 m/s)
Visibility: 6 or more miles (10+ km)
Ceiling: 6600 feet AGL
Clouds: broken clouds at 6600 feet AGL
Weather: no significant weather observed at this time

METAR text: ENTC 181620Z 27007KT 9999 BKN068 05/00 Q1030 NOSIG RMK WIND 2600FT 22012KT
Conditions at: ENTC (TROMSO/LANGNES , NO) observed 1620 UTC 18 April 2019
Temperature: 5.0°C (41°F)
Dewpoint: 0.0°C (32°F) [RH = 70%]
Pressure (altimeter): 30.41 inches Hg (1030.0 mb)
Winds: from the W (270 degrees) at 8 MPH (7 knots; 3.6 m/s)
Visibility: 6 or more miles (10+ km)
Ceiling: 6800 feet AGL
Clouds: broken clouds at 6800 feet AGL
Weather: no significant weather observed at this time

METAR text: ENTC 181550Z 27008KT 9999 BKN068 05/00 Q1030 NOSIG RMK WIND 2600FT 22012KT
Conditions at: ENTC (TROMSO/LANGNES , NO) observed 1550 UTC 18 April 2019
Temperature: 5.0°C (41°F)
Dewpoint: 0.0°C (32°F) [RH = 70%]
Pressure (altimeter): 30.41 inches Hg (1030.0 mb)
Winds: from the W (270 degrees) at 9 MPH (8 knots; 4.1 m/s)
Visibility: 6 or more miles (10+ km)
Ceiling: 6800 feet AGL
Clouds: broken clouds at 6800 feet AGL
Weather: no significant weather observed at this time

METAR text: ENTC 181520Z 27008KT 9999 BKN066 06/M00 Q1030 NOSIG RMK WIND 2600FT 22014KT
Conditions at: ENTC (TROMSO/LANGNES , NO) observed 1520 UTC 18 April 2019
Temperature: 6.0°C (43°F)
Dewpoint: 0.0°C (32°F) [RH = 65%]
Pressure (altimeter): 30.41 inches Hg (1030.0 mb)
Winds: from the W (270 degrees) at 9 MPH (8 knots; 4.1 m/s)
Visibility: 6 or more miles (10+ km)
Ceiling: 6600 feet AGL
Clouds: broken clouds at 6600 feet AGL
Weather: no significant weather observed at this time

METAR text: ENTC 181450Z 28009KT 9999 SCT050 06/01 Q1030 NOSIG RMK WIND 2600FT 22016KT
Conditions at: ENTC (TROMSO/LANGNES , NO) observed 1450 UTC 18 April 2019
Temperature: 6.0°C (43°F)
Dewpoint: 1.0°C (34°F) [RH = 70%]
Pressure (altimeter): 30.41 inches Hg (1030.0 mb)
Winds: from the W (280 degrees) at 10 MPH (9 knots; 4.6 m/s)
Visibility: 6 or more miles (10+ km)
Ceiling: at least 12,000 feet AGL
Clouds: scattered clouds at 5000 feet AGL
Weather: no significant weather observed at this time

METAR text: ENTC 181420Z 26004KT 9999 SCT050 06/00 Q1030 RMK WIND 2600FT 22015KT
Conditions at: ENTC (TROMSO/LANGNES , NO) observed 1420 UTC 18 April 2019
Temperature: 6.0°C (43°F)
Dewpoint: 0.0°C (32°F) [RH = 65%]
Pressure (altimeter): 30.41 inches Hg (1030.0 mb)
Winds: from the W (260 degrees) at 5 MPH (4 knots; 2.1 m/s)
Visibility: 6 or more miles (10+ km)
Ceiling: at least 12,000 feet AGL
Clouds: scattered clouds at 5000 feet AGL
Weather: no significant weather observed at this time

METAR text: ENTC 181350Z 29006KT 200V010 CAVOK 07/M01 Q1031 NOSIG RMK WIND 2600FT 22015KT
Conditions at: ENTC (TROMSO/LANGNES , NO) observed 1350 UTC 18 April 2019
Temperature: 7.0°C (45°F)
Dewpoint: -1.0°C (30°F) [RH = 57%]
Pressure (altimeter): 30.44 inches Hg (1031.0 mb)
Winds: from the WNW (290 degrees) at 7 MPH (6 knots; 3.1 m/s)
Visibility: 6 or more miles (10+ km)
Ceiling: ceiling and visibility are OK
Clouds: unknown
Weather: no significant weather observed at this time

METAR text: ENTC 181320Z 22009KT CAVOK 07/M01 Q1031 NOSIG RMK WIND 2600FT 22014KT
Conditions at: ENTC (TROMSO/LANGNES , NO) observed 1320 UTC 18 April 2019
Temperature: 7.0°C (45°F)
Dewpoint: -1.0°C (30°F) [RH = 57%]
Pressure (altimeter): 30.44 inches Hg (1031.0 mb)
Winds: from the SW (220 degrees) at 10 MPH (9 knots; 4.6 m/s)
Visibility: 6 or more miles (10+ km)
Ceiling: ceiling and visibility are OK
Clouds: unknown
Weather: no significant weather observed at this time

METAR text: ENTC 181250Z 25004KT 190V310 CAVOK 08/M03 Q1031 NOSIG RMK WIND 2600FT 23016KT
Conditions at: ENTC (TROMSO/LANGNES , NO) observed 1250 UTC 18 April 2019
Temperature: 8.0°C (46°F)
Dewpoint: -3.0°C (27°F) [RH = 46%]
Pressure (altimeter): 30.44 inches Hg (1031.0 mb)
Winds: from the WSW (250 degrees) at 5 MPH (4 knots; 2.1 m/s)
Visibility: 6 or more miles (10+ km)
Ceiling: ceiling and visibility are OK
Clouds: unknown
Weather: no significant weather observed at this time

METAR text: ENTC 181220Z VRB03KT CAVOK 08/M03 Q1031 NOSIG RMK WIND 2600FT 23017KT
Conditions at: ENTC (TROMSO/LANGNES , NO) observed 1220 UTC 18 April 2019
Temperature: 8.0°C (46°F)
Dewpoint: -3.0°C (27°F) [RH = 46%]
Pressure (altimeter): 30.44 inches Hg (1031.0 mb)
Winds: variable direction winds at 3 MPH (3 knots; 1.5 m/s)
Visibility: 6 or more miles (10+ km)
Ceiling: ceiling and visibility are OK
Clouds: unknown
Weather: no significant weather observed at this time

METAR text: ENTC 181150Z 24006KT 190V280 CAVOK 07/M02 Q1031 NOSIG RMK WIND 2600FT 20013KT
Conditions at: ENTC (TROMSO/LANGNES , NO) observed 1150 UTC 18 April 2019
Temperature: 7.0°C (45°F)
Dewpoint: -2.0°C (28°F) [RH = 53%]
Pressure (altimeter): 30.44 inches Hg (1031.0 mb)
Winds: from the WSW (240 degrees) at 7 MPH (6 knots; 3.1 m/s)
Visibility: 6 or more miles (10+ km)
Ceiling: ceiling and visibility are OK
Clouds: unknown
Weather: no significant weather observed at this time

METAR text: ENTC 181120Z 24004KT 200V270 CAVOK 07/M00 Q1031 NOSIG RMK WIND 2600FT 21017KT
Conditions at: ENTC (TROMSO/LANGNES , NO) observed 1120 UTC 18 April 2019
Temperature: 7.0°C (45°F)
Dewpoint: 0.0°C (32°F) [RH = 61%]
Pressure (altimeter): 30.44 inches Hg (1031.0 mb)
Winds: from the WSW (240 degrees) at 5 MPH (4 knots; 2.1 m/s)
Visibility: 6 or more miles (10+ km)
Ceiling: ceiling and visibility are OK
Clouds: unknown
Weather: no significant weather observed at this time

METAR text: ENTC 181050Z 29010KT CAVOK 06/01 Q1032 TEMPO 22008KT RMK WIND 2600FT 21015KT
Conditions at: ENTC (TROMSO/LANGNES , NO) observed 1050 UTC 18 April 2019
Temperature: 6.0°C (43°F)
Dewpoint: 1.0°C (34°F) [RH = 70%]
Pressure (altimeter): 30.47 inches Hg (1032.0 mb)
Winds: from the WNW (290 degrees) at 12 MPH (10 knots; 5.1 m/s)
Visibility: 6 or more miles (10+ km)
Ceiling: ceiling and visibility are OK
Clouds: unknown
Weather: no significant weather observed at this time

METAR text: ENTC 181020Z 27006KT 240V300 9999 FEW015 SCT110 06/01 Q1031 NOSIG RMK WIND 2600FT 22016KT
Conditions at: ENTC (TROMSO/LANGNES , NO) observed 1020 UTC 18 April 2019
Temperature: 6.0°C (43°F)
Dewpoint: 1.0°C (34°F) [RH = 70%]
Pressure (altimeter): 30.44 inches Hg (1031.0 mb)
Winds: from the W (270 degrees) at 7 MPH (6 knots; 3.1 m/s)
Visibility: 6 or more miles (10+ km)
Ceiling: at least 12,000 feet AGL
Clouds: few clouds at 1500 feet AGL
scattered clouds at 11000 feet AGL
Weather: no significant weather observed at this time

METAR text: ENTC 180950Z 26008KT 9999 FEW015 SCT100 06/00 Q1031 NOSIG RMK WIND 2600FT 21012KT
Conditions at: ENTC (TROMSO/LANGNES , NO) observed 0950 UTC 18 April 2019
Temperature: 6.0°C (43°F)
Dewpoint: 0.0°C (32°F) [RH = 65%]
Pressure (altimeter): 30.44 inches Hg (1031.0 mb)
Winds: from the W (260 degrees) at 9 MPH (8 knots; 4.1 m/s)
Visibility: 6 or more miles (10+ km)
Ceiling: at least 12,000 feet AGL
Clouds: few clouds at 1500 feet AGL
scattered clouds at 10000 feet AGL
Weather: no significant weather observed at this time

METAR text: ENTC 180920Z 21008KT 9999 OVC100 06/M03 Q1031 NOSIG RMK WIND 2600FT 21015KT
Conditions at: ENTC (TROMSO/LANGNES , NO) observed 0920 UTC 18 April 2019
Temperature: 6.0°C (43°F)
Dewpoint: -3.0°C (27°F) [RH = 52%]
Pressure (altimeter): 30.44 inches Hg (1031.0 mb)
Winds: from the SSW (210 degrees) at 9 MPH (8 knots; 4.1 m/s)
Visibility: 6 or more miles (10+ km)
Ceiling: 10000 feet AGL
Clouds: overcast cloud deck at 10000 feet AGL
Weather: no significant weather observed at this time

METAR text: ENTC 180850Z 21010KT 9999 FEW015 05/M04 Q1031 NOSIG RMK WIND 2600FT 23016KT
Conditions at: ENTC (TROMSO/LANGNES , NO) observed 0850 UTC 18 April 2019
Temperature: 5.0°C (41°F)
Dewpoint: -4.0°C (25°F) [RH = 52%]
Pressure (altimeter): 30.44 inches Hg (1031.0 mb)
Winds: from the SSW (210 degrees) at 12 MPH (10 knots; 5.1 m/s)
Visibility: 6 or more miles (10+ km)
Ceiling: at least 12,000 feet AGL
Clouds: few clouds at 1500 feet AGL
Weather: no significant weather observed at this time

METAR text: ENTC 180820Z 22010KT CAVOK 04/M02 Q1031 NOSIG RMK WIND 2600FT 22016KT
Conditions at: ENTC (TROMSO/LANGNES , NO) observed 0820 UTC 18 April 2019
Temperature: 4.0°C (39°F)
Dewpoint: -2.0°C (28°F) [RH = 65%]
Pressure (altimeter): 30.44 inches Hg (1031.0 mb)
Winds: from the SW (220 degrees) at 12 MPH (10 knots; 5.1 m/s)
Visibility: 6 or more miles (10+ km)
Ceiling: ceiling and visibility are OK
Clouds: unknown
Weather: no significant weather observed at this time

METAR text: ENTC 180750Z 25009KT CAVOK 04/M03 Q1031 NOSIG RMK WIND 2600FT 22016KT
Conditions at: ENTC (TROMSO/LANGNES , NO) observed 0750 UTC 18 April 2019
Temperature: 4.0°C (39°F)
Dewpoint: -3.0°C (27°F) [RH = 60%]
Pressure (altimeter): 30.44 inches Hg (1031.0 mb)
Winds: from the WSW (250 degrees) at 10 MPH (9 knots; 4.6 m/s)
Visibility: 6 or more miles (10+ km)
Ceiling: ceiling and visibility are OK
Clouds: unknown
Weather: no significant weather observed at this time

METAR text: ENTC 180720Z 20011KT CAVOK 03/M04 Q1032 NOSIG RMK WIND 2600FT 21011KT
Conditions at: ENTC (TROMSO/LANGNES , NO) observed 0720 UTC 18 April 2019
Temperature: 3.0°C (37°F)
Dewpoint: -4.0°C (25°F) [RH = 60%]
Pressure (altimeter): 30.47 inches Hg (1032.0 mb)
Winds: from the SSW (200 degrees) at 13 MPH (11 knots; 5.7 m/s)
Visibility: 6 or more miles (10+ km)
Ceiling: ceiling and visibility are OK
Clouds: unknown
Weather: no significant weather observed at this time

METAR text: ENTC 180650Z 21009KT CAVOK 03/M01 Q1032 NOSIG RMK WIND 2600FT 20008KT
Conditions at: ENTC (TROMSO/LANGNES , NO) observed 0650 UTC 18 April 2019
Temperature: 3.0°C (37°F)
Dewpoint: -1.0°C (30°F) [RH = 75%]
Pressure (altimeter): 30.47 inches Hg (1032.0 mb)
Winds: from the SSW (210 degrees) at 10 MPH (9 knots; 4.6 m/s)
Visibility: 6 or more miles (10+ km)
Ceiling: ceiling and visibility are OK
Clouds: unknown
Weather: no significant weather observed at this time

METAR text: ENTC 180620Z 22008KT CAVOK 02/M02 Q1032 NOSIG RMK WIND 2600FT 18007KT
Conditions at: ENTC (TROMSO/LANGNES , NO) observed 0620 UTC 18 April 2019
Temperature: 2.0°C (36°F)
Dewpoint: -2.0°C (28°F) [RH = 75%]
Pressure (altimeter): 30.47 inches Hg (1032.0 mb)
Winds: from the SW (220 degrees) at 9 MPH (8 knots; 4.1 m/s)
Visibility: 6 or more miles (10+ km)
Ceiling: ceiling and visibility are OK
Clouds: unknown
Weather: no significant weather observed at this time

METAR text: ENTC 180550Z 23007KT CAVOK 02/M02 Q1032 RMK WIND 2600FT 19012KT
Conditions at: ENTC (TROMSO/LANGNES , NO) observed 0550 UTC 18 April 2019
Temperature: 2.0°C (36°F)
Dewpoint: -2.0°C (28°F) [RH = 75%]
Pressure (altimeter): 30.47 inches Hg (1032.0 mb)
Winds: from the SW (230 degrees) at 8 MPH (7 knots; 3.6 m/s)
Visibility: 6 or more miles (10+ km)
Ceiling: ceiling and visibility are OK
Clouds: unknown
Weather: no significant weather observed at this time

METAR text: ENTC 180520Z 23006KT CAVOK 01/M02 Q1032 RMK WIND 2600FT 19009KT
Conditions at: ENTC (TROMSO/LANGNES , NO) observed 0520 UTC 18 April 2019
Temperature: 1.0°C (34°F)
Dewpoint: -2.0°C (28°F) [RH = 80%]
Pressure (altimeter): 30.47 inches Hg (1032.0 mb)
Winds: from the SW (230 degrees) at 7 MPH (6 knots; 3.1 m/s)
Visibility: 6 or more miles (10+ km)
Ceiling: ceiling and visibility are OK
Clouds: unknown
Weather: no significant weather observed at this time

METAR text: ENTC 180450Z 23006KT CAVOK 01/M02 Q1032 RMK WIND 2600FT 21009KT
Conditions at: ENTC (TROMSO/LANGNES , NO) observed 0450 UTC 18 April 2019
Temperature: 1.0°C (34°F)
Dewpoint: -2.0°C (28°F) [RH = 80%]
Pressure (altimeter): 30.47 inches Hg (1032.0 mb)
Winds: from the SW (230 degrees) at 7 MPH (6 knots; 3.1 m/s)
Visibility: 6 or more miles (10+ km)
Ceiling: ceiling and visibility are OK
Clouds: unknown
Weather: no significant weather observed at this time

METAR text: ENTC 180420Z 25007KT CAVOK 01/M02 Q1032 RMK WIND 2600FT 20010KT
Conditions at: ENTC (TROMSO/LANGNES , NO) observed 0420 UTC 18 April 2019
Temperature: 1.0°C (34°F)
Dewpoint: -2.0°C (28°F) [RH = 80%]
Pressure (altimeter): 30.47 inches Hg (1032.0 mb)
Winds: from the WSW (250 degrees) at 8 MPH (7 knots; 3.6 m/s)
Visibility: 6 or more miles (10+ km)
Ceiling: ceiling and visibility are OK
Clouds: unknown
Weather: no significant weather observed at this time

METAR text: ENTC 180350Z 27004KT CAVOK 00/M03 Q1032 RMK WIND 2600FT 20009KT
Conditions at: ENTC (TROMSO/LANGNES , NO) observed 0350 UTC 18 April 2019
Temperature: 0.0°C (32°F)
Dewpoint: -3.0°C (27°F) [RH = 80%]
Pressure (altimeter): 30.47 inches Hg (1032.0 mb)
Winds: from the W (270 degrees) at 5 MPH (4 knots; 2.1 m/s)
Visibility: 6 or more miles (10+ km)
Ceiling: ceiling and visibility are OK
Clouds: unknown
Weather: no significant weather observed at this time

METAR text: ENTC 180320Z 24006KT CAVOK 00/M02 Q1032 RMK WIND 2600FT 19008KT
Conditions at: ENTC (TROMSO/LANGNES , NO) observed 0320 UTC 18 April 2019
Temperature: 0.0°C (32°F)
Dewpoint: -2.0°C (28°F) [RH = 86%]
Pressure (altimeter): 30.47 inches Hg (1032.0 mb)
Winds: from the WSW (240 degrees) at 7 MPH (6 knots; 3.1 m/s)
Visibility: 6 or more miles (10+ km)
Ceiling: ceiling and visibility are OK
Clouds: unknown
Weather: no significant weather observed at this time

METAR text: ENTC 180250Z 00000KT CAVOK M01/M03 Q1033 RMK WIND 2600FT 20007KT
Conditions at: ENTC (TROMSO/LANGNES , NO) observed 0250 UTC 18 April 2019
Temperature: -1.0°C (30°F)
Dewpoint: -3.0°C (27°F) [RH = 86%]
Pressure (altimeter): 30.50 inches Hg (1033.0 mb)
Winds: calm
Visibility: 6 or more miles (10+ km)
Ceiling: ceiling and visibility are OK
Clouds: unknown
Weather: no significant weather observed at this time

METAR text: ENTC 180220Z VRB01KT CAVOK M01/M03 Q1033 RMK WIND 2600FT 22011KT
Conditions at: ENTC (TROMSO/LANGNES , NO) observed 0220 UTC 18 April 2019
Temperature: -1.0°C (30°F)
Dewpoint: -3.0°C (27°F) [RH = 86%]
Pressure (altimeter): 30.50 inches Hg (1033.0 mb)
Winds: variable direction winds at 1 MPH (1 knots; 0.5 m/s)
Visibility: 6 or more miles (10+ km)
Ceiling: ceiling and visibility are OK
Clouds: unknown
Weather: no significant weather observed at this time

METAR text: ENTC 180150Z 23005KT CAVOK 00/M02 Q1033 RMK WIND 2600FT 22015KT
Conditions at: ENTC (TROMSO/LANGNES , NO) observed 0150 UTC 18 April 2019
Temperature: 0.0°C (32°F)
Dewpoint: -2.0°C (28°F) [RH = 86%]
Pressure (altimeter): 30.50 inches Hg (1033.0 mb)
Winds: from the SW (230 degrees) at 6 MPH (5 knots; 2.6 m/s)
Visibility: 6 or more miles (10+ km)
Ceiling: ceiling and visibility are OK
Clouds: unknown
Weather: no significant weather observed at this time

METAR text: ENTC 180120Z VRB02KT CAVOK M01/M03 Q1033 RMK WIND 2600FT 21014KT
Conditions at: ENTC (TROMSO/LANGNES , NO) observed 0120 UTC 18 April 2019
Temperature: -1.0°C (30°F)
Dewpoint: -3.0°C (27°F) [RH = 86%]
Pressure (altimeter): 30.50 inches Hg (1033.0 mb)
Winds: variable direction winds at 2 MPH (2 knots; 1.0 m/s)
Visibility: 6 or more miles (10+ km)
Ceiling: ceiling and visibility are OK
Clouds: unknown
Weather: no significant weather observed at this time

METAR text: ENTC 180050Z VRB02KT CAVOK M01/M03 Q1033 RMK WIND 2600FT 19012KT
Conditions at: ENTC (TROMSO/LANGNES , NO) observed 0050 UTC 18 April 2019
Temperature: -1.0°C (30°F)
Dewpoint: -3.0°C (27°F) [RH = 86%]
Pressure (altimeter): 30.50 inches Hg (1033.0 mb)
Winds: variable direction winds at 2 MPH (2 knots; 1.0 m/s)
Visibility: 6 or more miles (10+ km)
Ceiling: ceiling and visibility are OK
Clouds: unknown
Weather: no significant weather observed at this time

METAR text: ENTC 180020Z 23002KT CAVOK M01/M03 Q1033 RMK WIND 2600FT 21013KT
Conditions at: ENTC (TROMSO/LANGNES , NO) observed 0020 UTC 18 April 2019
Temperature: -1.0°C (30°F)
Dewpoint: -3.0°C (27°F) [RH = 86%]
Pressure (altimeter): 30.50 inches Hg (1033.0 mb)
Winds: from the SW (230 degrees) at 2 MPH (2 knots; 1.0 m/s)
Visibility: 6 or more miles (10+ km)
Ceiling: ceiling and visibility are OK
Clouds: unknown
Weather: no significant weather observed at this time

METAR text: ENTC 172350Z VRB02KT CAVOK M01/M03 Q1034 RMK WIND 2600FT 21012KT
Conditions at: ENTC (TROMSO/LANGNES , NO) observed 2350 UTC 17 April 2019
Temperature: -1.0°C (30°F)
Dewpoint: -3.0°C (27°F) [RH = 86%]
Pressure (altimeter): 30.53 inches Hg (1034.0 mb)
Winds: variable direction winds at 2 MPH (2 knots; 1.0 m/s)
Visibility: 6 or more miles (10+ km)
Ceiling: ceiling and visibility are OK
Clouds: unknown
Weather: no significant weather observed at this time

METAR text: ENTC 172320Z 20004KT CAVOK M00/M03 Q1034 RMK WIND 2600FT 21011KT
Conditions at: ENTC (TROMSO/LANGNES , NO) observed 2320 UTC 17 April 2019
Temperature: 0.0°C (32°F)
Dewpoint: -3.0°C (27°F) [RH = 80%]
Pressure (altimeter): 30.53 inches Hg (1034.0 mb)
Winds: from the SSW (200 degrees) at 5 MPH (4 knots; 2.1 m/s)
Visibility: 6 or more miles (10+ km)
Ceiling: ceiling and visibility are OK
Clouds: unknown
Weather: no significant weather observed at this time

METAR text: ENTC 172250Z 19004KT CAVOK M00/M02 Q1034 RMK WIND 2600FT 22013KT
Conditions at: ENTC (TROMSO/LANGNES , NO) observed 2250 UTC 17 April 2019
Temperature: 0.0°C (32°F)
Dewpoint: -2.0°C (28°F) [RH = 86%]
Pressure (altimeter): 30.53 inches Hg (1034.0 mb)
Winds: from the S (190 degrees) at 5 MPH (4 knots; 2.1 m/s)
Visibility: 6 or more miles (10+ km)
Ceiling: ceiling and visibility are OK
Clouds: unknown
Weather: no significant weather observed at this time

METAR text: ENTC 172220Z 17003KT CAVOK M00/M02 Q1034 RMK WIND 2600FT 21010KT
Conditions at: ENTC (TROMSO/LANGNES , NO) observed 2220 UTC 17 April 2019
Temperature: 0.0°C (32°F)
Dewpoint: -2.0°C (28°F) [RH = 86%]
Pressure (altimeter): 30.53 inches Hg (1034.0 mb)
Winds: from the S (170 degrees) at 3 MPH (3 knots; 1.5 m/s)
Visibility: 6 or more miles (10+ km)
Ceiling: ceiling and visibility are OK
Clouds: unknown
Weather: no significant weather observed at this time

METAR text: ENTC 172150Z VRB02KT CAVOK M00/M03 Q1034 RMK WIND 2600FT 21010KT
Conditions at: ENTC (TROMSO/LANGNES , NO) observed 2150 UTC 17 April 2019
Temperature: 0.0°C (32°F)
Dewpoint: -3.0°C (27°F) [RH = 80%]
Pressure (altimeter): 30.53 inches Hg (1034.0 mb)
Winds: variable direction winds at 2 MPH (2 knots; 1.0 m/s)
Visibility: 6 or more miles (10+ km)
Ceiling: ceiling and visibility are OK
Clouds: unknown
Weather: no significant weather observed at this time

METAR text: ENTC 172120Z 15002KT CAVOK M00/M03 Q1034 RMK WIND 2600FT 20007KT
Conditions at: ENTC (TROMSO/LANGNES , NO) observed 2120 UTC 17 April 2019
Temperature: 0.0°C (32°F)
Dewpoint: -3.0°C (27°F) [RH = 80%]
Pressure (altimeter): 30.53 inches Hg (1034.0 mb)
Winds: from the SSE (150 degrees) at 2 MPH (2 knots; 1.0 m/s)
Visibility: 6 or more miles (10+ km)
Ceiling: ceiling and visibility are OK
Clouds: unknown
Weather: no significant weather observed at this time

METAR text: ENTC 172050Z VRB02KT CAVOK 00/M03 Q1034 NOSIG RMK WIND 2600FT 23009KT
Conditions at: ENTC (TROMSO/LANGNES , NO) observed 2050 UTC 17 April 2019
Temperature: 0.0°C (32°F)
Dewpoint: -3.0°C (27°F) [RH = 80%]
Pressure (altimeter): 30.53 inches Hg (1034.0 mb)
Winds: variable direction winds at 2 MPH (2 knots; 1.0 m/s)
Visibility: 6 or more miles (10+ km)
Ceiling: ceiling and visibility are OK
Clouds: unknown
Weather: no significant weather observed at this time

METAR text: ENTC 172020Z 17003KT CAVOK 01/M02 Q1034 NOSIG RMK WIND 2600FT 21009KT
Conditions at: ENTC (TROMSO/LANGNES , NO) observed 2020 UTC 17 April 2019
Temperature: 1.0°C (34°F)
Dewpoint: -2.0°C (28°F) [RH = 80%]
Pressure (altimeter): 30.53 inches Hg (1034.0 mb)
Winds: from the S (170 degrees) at 3 MPH (3 knots; 1.5 m/s)
Visibility: 6 or more miles (10+ km)
Ceiling: ceiling and visibility are OK
Clouds: unknown
Weather: no significant weather observed at this time

METAR text: ENTC 171950Z VRB01KT CAVOK 01/M02 Q1034 NOSIG RMK WIND 2600FT 22010KT
Conditions at: ENTC (TROMSO/LANGNES , NO) observed 1950 UTC 17 April 2019
Temperature: 1.0°C (34°F)
Dewpoint: -2.0°C (28°F) [RH = 80%]
Pressure (altimeter): 30.53 inches Hg (1034.0 mb)
Winds: variable direction winds at 1 MPH (1 knots; 0.5 m/s)
Visibility: 6 or more miles (10+ km)
Ceiling: ceiling and visibility are OK
Clouds: unknown
Weather: no significant weather observed at this time

METAR text: ENTC 171920Z 00000KT CAVOK 02/M02 Q1035 NOSIG RMK WIND 2600FT 20009KT
Conditions at: ENTC (TROMSO/LANGNES , NO) observed 1920 UTC 17 April 2019
Temperature: 2.0°C (36°F)
Dewpoint: -2.0°C (28°F) [RH = 75%]
Pressure (altimeter): 30.56 inches Hg (1035.0 mb)
Winds: calm
Visibility: 6 or more miles (10+ km)
Ceiling: ceiling and visibility are OK
Clouds: unknown
Weather: no significant weather observed at this time

METAR text: ENTC 171850Z 00000KT CAVOK 03/M02 Q1035 NOSIG RMK WIND 2600FT 20010KT
Conditions at: ENTC (TROMSO/LANGNES , NO) observed 1850 UTC 17 April 2019
Temperature: 3.0°C (37°F)
Dewpoint: -2.0°C (28°F) [RH = 70%]
Pressure (altimeter): 30.56 inches Hg (1035.0 mb)
Winds: calm
Visibility: 6 or more miles (10+ km)
Ceiling: ceiling and visibility are OK
Clouds: unknown
Weather: no significant weather observed at this time

METAR text: ENTC 171820Z 00000KT CAVOK 03/M01 Q1035 NOSIG RMK WIND 2600FT 20009KT
Conditions at: ENTC (TROMSO/LANGNES , NO) observed 1820 UTC 17 April 2019
Temperature: 3.0°C (37°F)
Dewpoint: -1.0°C (30°F) [RH = 75%]
Pressure (altimeter): 30.56 inches Hg (1035.0 mb)
Winds: calm
Visibility: 6 or more miles (10+ km)
Ceiling: ceiling and visibility are OK
Clouds: unknown
Weather: no significant weather observed at this time

METAR text: ENTC 171750Z VRB01KT CAVOK 04/M02 Q1035 NOSIG RMK WIND 2600FT 19010KT
Conditions at: ENTC (TROMSO/LANGNES , NO) observed 1750 UTC 17 April 2019
Temperature: 4.0°C (39°F)
Dewpoint: -2.0°C (28°F) [RH = 65%]
Pressure (altimeter): 30.56 inches Hg (1035.0 mb)
Winds: variable direction winds at 1 MPH (1 knots; 0.5 m/s)
Visibility: 6 or more miles (10+ km)
Ceiling: ceiling and visibility are OK
Clouds: unknown
Weather: no significant weather observed at this time

METAR text: ENTC 171720Z 23002KT CAVOK 04/M02 Q1035 NOSIG RMK WIND 2600FT 18008KT
Conditions at: ENTC (TROMSO/LANGNES , NO) observed 1720 UTC 17 April 2019
Temperature: 4.0°C (39°F)
Dewpoint: -2.0°C (28°F) [RH = 65%]
Pressure (altimeter): 30.56 inches Hg (1035.0 mb)
Winds: from the SW (230 degrees) at 2 MPH (2 knots; 1.0 m/s)
Visibility: 6 or more miles (10+ km)
Ceiling: ceiling and visibility are OK
Clouds: unknown
Weather: no significant weather observed at this time

METAR text: ENTC 171650Z 22002KT CAVOK 04/M01 Q1035 NOSIG RMK WIND 2600FT 16007KT
Conditions at: ENTC (TROMSO/LANGNES , NO) observed 1650 UTC 17 April 2019
Temperature: 4.0°C (39°F)
Dewpoint: -1.0°C (30°F) [RH = 70%]
Pressure (altimeter): 30.56 inches Hg (1035.0 mb)
Winds: from the SW (220 degrees) at 2 MPH (2 knots; 1.0 m/s)
Visibility: 6 or more miles (10+ km)
Ceiling: ceiling and visibility are OK
Clouds: unknown
Weather: no significant weather observed at this time

METAR text: ENTC 171620Z 23003KT CAVOK 04/M02 Q1035 NOSIG RMK WIND 2600FT 16004KT
Conditions at: ENTC (TROMSO/LANGNES , NO) observed 1620 UTC 17 April 2019
Temperature: 4.0°C (39°F)
Dewpoint: -2.0°C (28°F) [RH = 65%]
Pressure (altimeter): 30.56 inches Hg (1035.0 mb)
Winds: from the SW (230 degrees) at 3 MPH (3 knots; 1.5 m/s)
Visibility: 6 or more miles (10+ km)
Ceiling: ceiling and visibility are OK
Clouds: unknown
Weather: no significant weather observed at this time

METAR text: ENTC 171550Z 24002KT CAVOK 04/M01 Q1035 NOSIG RMK WIND 2600FT VRB03KT
Conditions at: ENTC (TROMSO/LANGNES , NO) observed 1550 UTC 17 April 2019
Temperature: 4.0°C (39°F)
Dewpoint: -1.0°C (30°F) [RH = 70%]
Pressure (altimeter): 30.56 inches Hg (1035.0 mb)
Winds: from the WSW (240 degrees) at 2 MPH (2 knots; 1.0 m/s)
Visibility: 6 or more miles (10+ km)
Ceiling: ceiling and visibility are OK
Clouds: unknown
Weather: no significant weather observed at this time

METAR text: ENTC 171520Z VRB02KT CAVOK 04/M02 Q1035 NOSIG RMK WIND 2600FT 05004KT
Conditions at: ENTC (TROMSO/LANGNES , NO) observed 1520 UTC 17 April 2019
Temperature: 4.0°C (39°F)
Dewpoint: -2.0°C (28°F) [RH = 65%]
Pressure (altimeter): 30.56 inches Hg (1035.0 mb)
Winds: variable direction winds at 2 MPH (2 knots; 1.0 m/s)
Visibility: 6 or more miles (10+ km)
Ceiling: ceiling and visibility are OK
Clouds: unknown
Weather: no significant weather observed at this time

METAR text: ENTC 171450Z 23003KT CAVOK 04/M02 Q1035 NOSIG RMK WIND 2600FT 04004KT
Conditions at: ENTC (TROMSO/LANGNES , NO) observed 1450 UTC 17 April 2019
Temperature: 4.0°C (39°F)
Dewpoint: -2.0°C (28°F) [RH = 65%]
Pressure (altimeter): 30.56 inches Hg (1035.0 mb)
Winds: from the SW (230 degrees) at 3 MPH (3 knots; 1.5 m/s)
Visibility: 6 or more miles (10+ km)
Ceiling: ceiling and visibility are OK
Clouds: unknown
Weather: no significant weather observed at this time

METAR text: ENTC 171420Z 25002KT CAVOK 04/M01 Q1035 NOSIG RMK WIND 2600FT 05004KT
Conditions at: ENTC (TROMSO/LANGNES , NO) observed 1420 UTC 17 April 2019
Temperature: 4.0°C (39°F)
Dewpoint: -1.0°C (30°F) [RH = 70%]
Pressure (altimeter): 30.56 inches Hg (1035.0 mb)
Winds: from the WSW (250 degrees) at 2 MPH (2 knots; 1.0 m/s)
Visibility: 6 or more miles (10+ km)
Ceiling: ceiling and visibility are OK
Clouds: unknown
Weather: no significant weather observed at this time

METAR text: ENTC 171350Z 23002KT CAVOK 04/M02 Q1035 NOSIG RMK WIND 2600FT 06003KT
Conditions at: ENTC (TROMSO/LANGNES , NO) observed 1350 UTC 17 April 2019
Temperature: 4.0°C (39°F)
Dewpoint: -2.0°C (28°F) [RH = 65%]
Pressure (altimeter): 30.56 inches Hg (1035.0 mb)
Winds: from the SW (230 degrees) at 2 MPH (2 knots; 1.0 m/s)
Visibility: 6 or more miles (10+ km)
Ceiling: ceiling and visibility are OK
Clouds: unknown
Weather: no significant weather observed at this time

METAR text: ENTC 171320Z 23003KT CAVOK 04/M02 Q1035 NOSIG RMK WIND 2600FT 05003KT
Conditions at: ENTC (TROMSO/LANGNES , NO) observed 1320 UTC 17 April 2019
Temperature: 4.0°C (39°F)
Dewpoint: -2.0°C (28°F) [RH = 65%]
Pressure (altimeter): 30.56 inches Hg (1035.0 mb)
Winds: from the SW (230 degrees) at 3 MPH (3 knots; 1.5 m/s)
Visibility: 6 or more miles (10+ km)
Ceiling: ceiling and visibility are OK
Clouds: unknown
Weather: no significant weather observed at this time

METAR text: ENTC 171250Z 23003KT CAVOK 04/M02 Q1036 NOSIG RMK WIND 2600FT 02003KT
Conditions at: ENTC (TROMSO/LANGNES , NO) observed 1250 UTC 17 April 2019
Temperature: 4.0°C (39°F)
Dewpoint: -2.0°C (28°F) [RH = 65%]
Pressure (altimeter): 30.59 inches Hg (1036.0 mb)
Winds: from the SW (230 degrees) at 3 MPH (3 knots; 1.5 m/s)
Visibility: 6 or more miles (10+ km)
Ceiling: ceiling and visibility are OK
Clouds: unknown
Weather: no significant weather observed at this time

METAR text: ENTC 171220Z 21003KT CAVOK 04/M03 Q1036 NOSIG RMK WIND 2600FT 02004KT
Conditions at: ENTC (TROMSO/LANGNES , NO) observed 1220 UTC 17 April 2019
Temperature: 4.0°C (39°F)
Dewpoint: -3.0°C (27°F) [RH = 60%]
Pressure (altimeter): 30.59 inches Hg (1036.0 mb)
Winds: from the SSW (210 degrees) at 3 MPH (3 knots; 1.5 m/s)
Visibility: 6 or more miles (10+ km)
Ceiling: ceiling and visibility are OK
Clouds: unknown
Weather: no significant weather observed at this time

METAR text: ENTC 171150Z 22003KT CAVOK 04/M02 Q1036 NOSIG RMK WIND 2600FT 02004KT
Conditions at: ENTC (TROMSO/LANGNES , NO) observed 1150 UTC 17 April 2019
Temperature: 4.0°C (39°F)
Dewpoint: -2.0°C (28°F) [RH = 65%]
Pressure (altimeter): 30.59 inches Hg (1036.0 mb)
Winds: from the SW (220 degrees) at 3 MPH (3 knots; 1.5 m/s)
Visibility: 6 or more miles (10+ km)
Ceiling: ceiling and visibility are OK
Clouds: unknown
Weather: no significant weather observed at this time

METAR text: ENTC 171120Z 22004KT CAVOK 03/M02 Q1036 NOSIG RMK WIND 2600FT 04003KT
Conditions at: ENTC (TROMSO/LANGNES , NO) observed 1120 UTC 17 April 2019
Temperature: 3.0°C (37°F)
Dewpoint: -2.0°C (28°F) [RH = 70%]
Pressure (altimeter): 30.59 inches Hg (1036.0 mb)
Winds: from the SW (220 degrees) at 5 MPH (4 knots; 2.1 m/s)
Visibility: 6 or more miles (10+ km)
Ceiling: ceiling and visibility are OK
Clouds: unknown
Weather: no significant weather observed at this time

METAR text: ENTC 171050Z 22004KT 190V280 CAVOK 03/M03 Q1036 NOSIG RMK WIND 2600FT 05004KT
Conditions at: ENTC (TROMSO/LANGNES , NO) observed 1050 UTC 17 April 2019
Temperature: 3.0°C (37°F)
Dewpoint: -3.0°C (27°F) [RH = 65%]
Pressure (altimeter): 30.59 inches Hg (1036.0 mb)
Winds: from the SW (220 degrees) at 5 MPH (4 knots; 2.1 m/s)
Visibility: 6 or more miles (10+ km)
Ceiling: ceiling and visibility are OK
Clouds: unknown
Weather: no significant weather observed at this time

METAR text: ENTC 171020Z 21004KT CAVOK 03/M03 Q1036 NOSIG RMK WIND 2600FT 01005KT
Conditions at: ENTC (TROMSO/LANGNES , NO) observed 1020 UTC 17 April 2019
Temperature: 3.0°C (37°F)
Dewpoint: -3.0°C (27°F) [RH = 65%]
Pressure (altimeter): 30.59 inches Hg (1036.0 mb)
Winds: from the SSW (210 degrees) at 5 MPH (4 knots; 2.1 m/s)
Visibility: 6 or more miles (10+ km)
Ceiling: ceiling and visibility are OK
Clouds: unknown
Weather: no significant weather observed at this time

METAR text: ENTC 170950Z 20005KT CAVOK 03/M03 Q1036 NOSIG RMK WIND 2600FT 36006KT
Conditions at: ENTC (TROMSO/LANGNES , NO) observed 0950 UTC 17 April 2019
Temperature: 3.0°C (37°F)
Dewpoint: -3.0°C (27°F) [RH = 65%]
Pressure (altimeter): 30.59 inches Hg (1036.0 mb)
Winds: from the SSW (200 degrees) at 6 MPH (5 knots; 2.6 m/s)
Visibility: 6 or more miles (10+ km)
Ceiling: ceiling and visibility are OK
Clouds: unknown
Weather: no significant weather observed at this time

METAR text: ENTC 170920Z 19006KT CAVOK 03/M02 Q1036 NOSIG RMK WIND 2600FT 01005KT
Conditions at: ENTC (TROMSO/LANGNES , NO) observed 0920 UTC 17 April 2019
Temperature: 3.0°C (37°F)
Dewpoint: -2.0°C (28°F) [RH = 70%]
Pressure (altimeter): 30.59 inches Hg (1036.0 mb)
Winds: from the S (190 degrees) at 7 MPH (6 knots; 3.1 m/s)
Visibility: 6 or more miles (10+ km)
Ceiling: ceiling and visibility are OK
Clouds: unknown
Weather: no significant weather observed at this time

METAR text: ENTC 170850Z 20007KT CAVOK 02/M02 Q1036 NOSIG RMK WIND 2600FT 35003KT
Conditions at: ENTC (TROMSO/LANGNES , NO) observed 0850 UTC 17 April 2019
Temperature: 2.0°C (36°F)
Dewpoint: -2.0°C (28°F) [RH = 75%]
Pressure (altimeter): 30.59 inches Hg (1036.0 mb)
Winds: from the SSW (200 degrees) at 8 MPH (7 knots; 3.6 m/s)
Visibility: 6 or more miles (10+ km)
Ceiling: ceiling and visibility are OK
Clouds: unknown
Weather: no significant weather observed at this time

METAR text: ENTC 170820Z 20008KT CAVOK 02/M01 Q1036 NOSIG RMK WIND 2600FT 36003KT
Conditions at: ENTC (TROMSO/LANGNES , NO) observed 0820 UTC 17 April 2019
Temperature: 2.0°C (36°F)
Dewpoint: -1.0°C (30°F) [RH = 80%]
Pressure (altimeter): 30.59 inches Hg (1036.0 mb)
Winds: from the SSW (200 degrees) at 9 MPH (8 knots; 4.1 m/s)
Visibility: 6 or more miles (10+ km)
Ceiling: ceiling and visibility are OK
Clouds: unknown
Weather: no significant weather observed at this time

METAR text: ENTC 170750Z 20009KT CAVOK 02/M02 Q1036 NOSIG RMK WIND 2600FT 03004KT
Conditions at: ENTC (TROMSO/LANGNES , NO) observed 0750 UTC 17 April 2019
Temperature: 2.0°C (36°F)
Dewpoint: -2.0°C (28°F) [RH = 75%]
Pressure (altimeter): 30.59 inches Hg (1036.0 mb)
Winds: from the SSW (200 degrees) at 10 MPH (9 knots; 4.6 m/s)
Visibility: 6 or more miles (10+ km)
Ceiling: ceiling and visibility are OK
Clouds: unknown
Weather: no significant weather observed at this time

METAR text: ENTC 170720Z 19008KT CAVOK 01/M01 Q1035 NOSIG RMK WIND 2600FT VRB02KT
Conditions at: ENTC (TROMSO/LANGNES , NO) observed 0720 UTC 17 April 2019
Temperature: 1.0°C (34°F)
Dewpoint: -1.0°C (30°F) [RH = 86%]
Pressure (altimeter): 30.56 inches Hg (1035.0 mb)
Winds: from the S (190 degrees) at 9 MPH (8 knots; 4.1 m/s)
Visibility: 6 or more miles (10+ km)
Ceiling: ceiling and visibility are OK
Clouds: unknown
Weather: no significant weather observed at this time

METAR text: ENTC 170650Z 19009KT 9999 FEW033 01/M02 Q1035 NOSIG RMK WIND 2600FT 33004KT
Conditions at: ENTC (TROMSO/LANGNES , NO) observed 0650 UTC 17 April 2019
Temperature: 1.0°C (34°F)
Dewpoint: -2.0°C (28°F) [RH = 80%]
Pressure (altimeter): 30.56 inches Hg (1035.0 mb)
Winds: from the S (190 degrees) at 10 MPH (9 knots; 4.6 m/s)
Visibility: 6 or more miles (10+ km)
Ceiling: at least 12,000 feet AGL
Clouds: few clouds at 3300 feet AGL
Weather: no significant weather observed at this time

METAR text: ENTC 170620Z 19007KT 9999 BKN033 01/M02 Q1035 NOSIG RMK WIND 2600FT 32004KT
Conditions at: ENTC (TROMSO/LANGNES , NO) observed 0620 UTC 17 April 2019
Temperature: 1.0°C (34°F)
Dewpoint: -2.0°C (28°F) [RH = 80%]
Pressure (altimeter): 30.56 inches Hg (1035.0 mb)
Winds: from the S (190 degrees) at 8 MPH (7 knots; 3.6 m/s)
Visibility: 6 or more miles (10+ km)
Ceiling: 3300 feet AGL
Clouds: broken clouds at 3300 feet AGL
Weather: no significant weather observed at this time

Forecast for: COR
Text: TAF COR ENTC 1818/1918 22008KT 9999 FEW020 BKN030
Forecast period: 1800 UTC 18 April 2019 to 1800 UTC 19 April 2019
Forecast type: FROM: standard forecast or significant change
Winds: from the SW (220 degrees) at 9 MPH (8 knots; 4.1 m/s)
Visibility: 6 or more miles 10+ km)
Ceiling: 3000 feet AGL
Clouds: few clouds at 2000 feet AGL
broken clouds at 3000 feet AGL
Weather: no significant weather forecast for this period
Text: TEMPO 1818/1821 28012KT
Forecast period: 1800 to 2100 UTC 18 April 2019
Forecast type: TEMPORARY: The following changes expected for less than half the time period
Winds: from the W (280 degrees) at 14 MPH (12 knots; 6.2 m/s)
Visibility: missing
Ceiling: unknown
Clouds: missing
Weather: no significant weather forecast for this period
Text: PROB30 1818/1903 BKN014
Forecast period: 1800 UTC 18 April 2019 to 0300 UTC 19 April 2019
Forecast type: PROBABLE: 30 percent likelihood of the following during this time
Visibility: missing
Ceiling: 1400 feet AGL
Clouds: broken clouds at 1400 feet AGL
Weather: no significant weather forecast for this period
Text: TEMPO 1903/1918 22018KT
Forecast period: 0300 to 1800 UTC 19 April 2019
Forecast type: TEMPORARY: The following changes expected for less than half the time period
Winds: from the SW (220 degrees) at 21 MPH (18 knots; 9.3 m/s)
Visibility: missing
Ceiling: unknown
Clouds: missing
Weather: no significant weather forecast for this period
Text: TEMPO 1910/1918 SHRA BKN014
Forecast period: 1000 to 1800 UTC 19 April 2019
Forecast type: TEMPORARY: The following changes expected for less than half the time period
Visibility: missing
Ceiling: 1400 feet AGL
Clouds: broken clouds at 1400 feet AGL
Weather: SHRA  (rain showers)